Time;durP1;ratioP1;P1;durP2;ratioP2;P2;SDS_P1;SDS_P2;PMS_P1;PMS_P2;Temp;Humidity;BMP_temperature;BMP_pressure;BME280_temperature;BME280_humidity;BME280_pressure;Samples;Min_cycle;Max_cycle;Signal;HPM_P1;HPM_P2
2022/09/25 00:02:15;;;;;;;7.88;3.05;;;9.50;99.90;;;;;;5035674;28;20040;-44
2022/09/25 00:04:41;;;;;;;6.45;3.10;;;9.50;99.90;;;;;;5049537;28;20075;-44
2022/09/25 00:07:06;;;;;;;6.63;3.05;;;9.40;99.90;;;;;;5050254;28;20436;-44
2022/09/25 00:09:32;;;;;;;10.70;3.28;;;9.50;99.90;;;;;;5050591;28;20111;-43
2022/09/25 00:11:58;;;;;;;9.25;3.10;;;9.40;99.90;;;;;;5050567;28;20033;-46
2022/09/25 00:14:23;;;;;;;12.70;3.15;;;9.50;99.90;;;;;;5050510;28;20040;-44
2022/09/25 00:16:49;;;;;;;10.43;3.33;;;9.40;99.90;;;;;;5050432;28;20032;-45
2022/09/25 00:22:05;;;;;;;7.72;3.00;;;9.50;99.90;;;;;;5050723;28;20538;-44
2022/09/25 00:24:31;;;;;;;7.22;3.40;;;9.40;99.90;;;;;;5032139;28;20044;-43
2022/09/25 00:26:58;;;;;;;7.57;2.90;;;9.30;99.90;;;;;;5050632;28;20041;-45
2022/09/25 00:29:24;;;;;;;7.93;3.03;;;9.50;99.90;;;;;;5035330;28;20037;-46
2022/09/25 00:31:49;;;;;;;6.40;2.45;;;9.40;99.90;;;;;;5050207;28;20044;-46
2022/09/25 00:34:15;;;;;;;7.97;3.05;;;9.30;99.90;;;;;;5050383;28;20174;-44
2022/09/25 00:36:41;;;;;;;8.98;2.70;;;9.40;99.90;;;;;;5050181;28;20124;-48
2022/09/25 00:39:06;;;;;;;7.45;2.90;;;9.30;99.90;;;;;;5030991;28;20053;-43
2022/09/25 00:41:33;;;;;;;6.57;2.70;;;9.30;99.90;;;;;;5050124;28;20392;-46
2022/09/25 00:44:00;;;;;;;10.10;3.25;;;9.30;99.90;;;;;;5042097;28;20147;-42
2022/09/25 00:46:41;;;;;;;9.18;2.58;;;9.40;99.90;;;;;;5050359;28;20280;-42
2022/09/25 00:49:16;;;;;;;7.70;2.30;;;9.30;99.90;;;;;;5048984;28;20464;-45
2022/09/25 00:51:49;;;;;;;8.52;3.00;;;9.40;99.90;;;;;;5049590;28;20392;-43
2022/09/25 00:54:27;;;;;;;9.40;2.90;;;9.30;99.90;;;;;;5051941;28;20094;-43
2022/09/25 00:56:55;;;;;;;6.03;2.60;;;9.40;99.90;;;;;;5053752;28;20121;-43
2022/09/25 00:59:31;;;;;;;7.85;2.60;;;9.30;99.90;;;;;;5053931;28;20036;-45
2022/09/25 01:01:58;;;;;;;10.18;2.58;;;9.20;99.90;;;;;;5053910;28;20025;-44
2022/09/25 01:04:27;;;;;;;12.27;3.35;;;9.20;99.90;;;;;;5053861;28;20044;-45
2022/09/25 01:06:53;;;;;;;7.43;2.40;;;9.20;99.90;;;;;;5053614;28;20064;-45
2022/09/25 01:09:19;;;;;;;9.00;2.95;;;9.10;99.90;;;;;;5053461;28;20355;-44
2022/09/25 01:11:45;;;;;;;5.60;2.40;;;9.20;99.90;;;;;;5053778;28;20071;-45
2022/09/25 01:14:15;;;;;;;8.18;2.70;;;9.30;99.90;;;;;;5053794;28;20041;-47
2022/09/25 01:17:17;;;;;;;9.23;2.78;;;9.00;99.90;;;;;;5054029;28;20120;-47
2022/09/25 01:20:34;;;;;;;8.55;2.65;;;9.10;99.90;;;;;;5049616;28;20049;-46
2022/09/25 01:23:08;;;;;;;8.48;3.15;;;9.00;99.90;;;;;;4971164;28;20039;-45
2022/09/25 01:26:02;;;;;;;5.65;2.45;;;9.00;99.90;;;;;;5041367;28;20060;-47
2022/09/25 01:28:59;;;;;;;6.55;2.40;;;9.00;99.90;;;;;;5050871;28;20045;-43
2022/09/25 01:31:35;;;;;;;7.22;2.78;;;8.90;99.90;;;;;;5053278;28;20392;-46
2022/09/25 01:34:12;;;;;;;5.55;2.40;;;9.00;99.90;;;;;;5052279;28;20452;-46
2022/09/25 01:36:46;;;;;;;6.32;2.50;;;9.00;99.90;;;;;;5052039;28;20391;-43
2022/09/25 01:39:24;;;;;;;;;;;9.00;99.90;;;;;;5052421;28;20483;-45
2022/09/25 01:42:10;;;;;;;6.05;2.28;;;8.90;99.90;;;;;;5052069;28;19924;-45
2022/09/25 01:44:48;;;;;;;8.05;2.50;;;8.80;99.90;;;;;;5052752;28;20044;-43
2022/09/25 01:47:24;;;;;;;6.80;2.33;;;8.90;99.90;;;;;;5053303;28;20379;-45
2022/09/25 01:49:58;;;;;;;7.93;2.35;;;8.80;99.90;;;;;;5053011;28;20037;-42
2022/09/25 01:52:31;;;;;;;7.22;2.38;;;8.90;99.90;;;;;;5050711;28;20040;-44
2022/09/25 01:55:20;;;;;;;9.25;2.55;;;8.80;99.90;;;;;;5052815;28;20285;-46
2022/09/25 01:57:52;;;;;;;7.97;2.17;;;8.80;99.90;;;;;;5052713;28;20103;-45
2022/09/25 02:00:20;;;;;;;6.65;2.05;;;8.80;99.90;;;;;;5052557;28;20045;-45
2022/09/25 02:02:55;;;;;;;7.03;2.08;;;8.90;99.90;;;;;;5052530;28;20045;-45
2022/09/25 02:05:27;;;;;;;7.75;2.22;;;8.70;99.90;;;;;;5052487;28;20036;-47
2022/09/25 02:08:07;;;;;;;6.25;2.13;;;8.70;99.90;;;;;;5051251;28;20060;-42
2022/09/25 02:10:43;;;;;;;7.80;2.05;;;8.70;99.90;;;;;;5052269;28;20079;-45
2022/09/25 02:13:16;;;;;;;8.02;1.95;;;8.90;99.90;;;;;;5051953;28;20032;-46
2022/09/25 02:15:54;;;;;;;5.00;2.58;;;8.80;99.90;;;;;;5052602;28;20179;-45
2022/09/25 02:21:34;;;;;;;4.70;2.00;;;8.60;99.90;;;;;;5050120;28;20099;-45
2022/09/25 02:24:31;;;;;;;8.15;2.42;;;8.80;99.90;;;;;;5052530;28;20048;-44
2022/09/25 02:26:56;;;;;;;9.38;2.33;;;8.70;99.90;;;;;;5021281;28;20057;-43
2022/09/25 02:29:22;;;;;;;7.22;2.25;;;8.70;99.90;;;;;;5052087;28;20386;-43
2022/09/25 02:32:01;;;;;;;7.43;2.03;;;8.80;99.90;;;;;;5052349;28;20403;-46
2022/09/25 02:34:27;;;;;;;4.85;1.92;;;8.70;99.90;;;;;;5052336;28;20127;-44
2022/09/25 02:36:52;;;;;;;4.63;2.10;;;8.70;99.90;;;;;;5051914;28;20555;-49
2022/09/25 02:39:23;;;;;;;4.55;1.92;;;8.80;99.90;;;;;;5052071;28;20035;-43
2022/09/25 02:41:49;;;;;;;5.05;2.10;;;8.60;99.90;;;;;;5051685;28;20080;-43
2022/09/25 02:44:42;;;;;;;6.20;2.30;;;8.60;99.90;;;;;;5052120;28;20443;-48
2022/09/25 02:47:20;;;;;;;5.57;2.33;;;8.70;99.90;;;;;;5050988;28;20089;-45
2022/09/25 02:49:59;;;;;;;4.80;1.88;;;8.50;99.90;;;;;;5051686;28;20044;-46
2022/09/25 02:52:46;;;;;;;5.50;2.33;;;8.50;99.90;;;;;;5051545;28;20068;-47
2022/09/25 02:55:21;;;;;;;6.38;2.08;;;8.50;99.90;;;;;;5052078;28;20094;-45
2022/09/25 02:57:50;;;;;;;4.57;2.42;;;8.50;99.90;;;;;;5036916;28;20119;-44
2022/09/25 03:00:16;;;;;;;4.43;2.00;;;8.50;99.90;;;;;;5051826;28;20045;-45
2022/09/25 03:02:44;;;;;;;8.95;2.15;;;8.40;99.90;;;;;;5051639;28;20052;-43
2022/09/25 03:05:12;;;;;;;7.22;2.40;;;8.50;99.90;;;;;;5048742;28;20029;-45
2022/09/25 03:10:24;;;;;;;8.50;1.98;;;8.50;99.90;;;;;;5050953;28;20067;-45
2022/09/25 03:12:49;;;;;;;7.90;2.17;;;8.50;99.90;;;;;;5051130;28;20037;-44
2022/09/25 03:15:16;;;;;;;5.13;2.50;;;8.40;99.90;;;;;;5051660;28;20037;-44
2022/09/25 03:17:42;;;;;;;7.55;2.40;;;8.50;99.90;;;;;;5051037;28;20124;-43
2022/09/25 03:20:08;;;;;;;7.53;2.55;;;8.50;99.90;;;;;;5050992;28;20041;-46
2022/09/25 03:22:35;;;;;;;5.38;2.22;;;8.70;99.90;;;;;;5051386;28;20067;-48
2022/09/25 03:25:00;;;;;;;6.63;2.60;;;8.50;99.90;;;;;;5041512;28;20044;-43
2022/09/25 03:27:28;;;;;;;7.13;2.40;;;8.60;99.90;;;;;;5051090;28;20066;-44
2022/09/25 03:29:54;;;;;;;6.15;2.72;;;8.80;99.90;;;;;;5051354;28;20036;-46
2022/09/25 03:32:20;;;;;;;7.72;2.95;;;8.90;99.90;;;;;;5051050;28;20037;-44
2022/09/25 03:34:46;;;;;;;6.43;2.60;;;8.80;99.90;;;;;;5051183;28;20055;-45
2022/09/25 03:37:12;;;;;;;8.38;2.88;;;8.90;99.90;;;;;;5050738;28;20032;-45
2022/09/25 03:39:38;;;;;;;9.52;3.33;;;9.00;99.90;;;;;;5051056;28;20040;-43
2022/09/25 03:42:04;;;;;;;7.20;2.83;;;8.80;99.90;;;;;;5050746;28;20547;-46
2022/09/25 03:44:30;;;;;;;5.70;2.42;;;8.90;99.90;;;;;;5050076;28;20132;-44
2022/09/25 03:46:56;;;;;;;6.38;2.90;;;9.00;99.90;;;;;;5048501;28;20498;-47
2022/09/25 03:49:21;;;;;;;8.20;2.72;;;9.00;99.90;;;;;;5049597;28;20481;-42
2022/09/25 03:51:47;;;;;;;4.95;2.42;;;8.80;99.90;;;;;;5050913;28;20041;-43
2022/09/25 03:54:13;;;;;;;7.20;2.40;;;8.90;99.90;;;;;;5050851;28;20068;-43
2022/09/25 03:56:39;;;;;;;5.22;2.70;;;8.90;99.90;;;;;;5050603;28;20032;-47
2022/09/25 03:59:05;;;;;;;5.32;2.78;;;8.60;99.90;;;;;;5050739;28;20043;-43
2022/09/25 04:01:30;;;;;;;6.90;2.90;;;8.70;99.90;;;;;;5050484;28;20037;-45
2022/09/25 04:03:57;;;;;;;7.18;2.63;;;8.70;99.90;;;;;;5050344;28;20049;-48
2022/09/25 04:06:25;;;;;;;7.40;2.40;;;8.50;99.90;;;;;;5049891;28;20080;-44
2022/09/25 04:08:52;;;;;;;10.60;3.05;;;8.70;99.90;;;;;;5050526;28;20033;-43
2022/09/25 04:11:18;;;;;;;6.80;2.83;;;8.80;99.90;;;;;;5050705;28;20044;-46
2022/09/25 04:13:44;;;;;;;6.07;2.50;;;8.50;99.90;;;;;;5050299;28;20033;-46
2022/09/25 04:16:12;;;;;;;12.43;2.80;;;8.40;99.90;;;;;;5050765;28;20068;-45
2022/09/25 04:18:39;;;;;;;10.25;2.95;;;8.80;99.90;;;;;;5050820;28;20468;-45
2022/09/25 04:21:07;;;;;;;8.93;2.50;;;8.50;99.90;;;;;;5050316;28;20479;-45
2022/09/25 04:23:33;;;;;;;6.65;2.65;;;8.50;99.90;;;;;;5050367;28;20056;-47
2022/09/25 04:25:59;;;;;;;6.88;2.40;;;8.60;99.90;;;;;;5048948;28;20049;-45
2022/09/25 04:28:25;;;;;;;7.82;2.70;;;8.50;99.90;;;;;;5050857;28;20476;-48
2022/09/25 04:30:51;;;;;;;8.48;2.60;;;8.50;99.90;;;;;;5041271;28;20108;-44
2022/09/25 04:36:03;;;;;;;13.25;3.50;;;8.70;99.90;;;;;;5053049;28;20392;-45
2022/09/25 04:38:31;;;;;;;9.13;3.63;;;8.80;99.90;;;;;;5053794;28;20045;-43
2022/09/25 04:40:59;;;;;;;9.18;3.15;;;8.70;99.90;;;;;;5054357;28;20040;-44
2022/09/25 04:43:26;;;;;;;13.07;3.40;;;8.70;99.90;;;;;;5054458;28;20120;-45
2022/09/25 04:45:52;;;;;;;10.50;3.72;;;8.80;99.90;;;;;;5037876;28;20053;-43
2022/09/25 04:48:18;;;;;;;8.20;3.35;;;8.70;99.90;;;;;;5054357;28;20048;-46
2022/09/25 04:50:48;;;;;;;9.57;3.60;;;8.80;99.90;;;;;;5053688;28;20037;-45
2022/09/25 04:53:14;;;;;;;16.23;3.70;;;8.70;99.90;;;;;;5054186;28;20434;-46
2022/09/25 04:55:39;;;;;;;11.43;3.97;;;9.00;99.90;;;;;;5053989;28;20044;-45
2022/09/25 04:58:05;;;;;;;12.25;3.85;;;9.00;99.90;;;;;;5054182;28;20037;-45
2022/09/25 05:00:31;;;;;;;17.35;3.83;;;8.90;99.90;;;;;;5053720;28;20048;-43
2022/09/25 05:02:57;;;;;;;9.27;2.97;;;8.80;99.90;;;;;;5054020;28;20061;-43
2022/09/25 05:05:27;;;;;;;9.45;2.92;;;8.90;99.90;;;;;;5053614;28;20073;-45
2022/09/25 05:07:53;;;;;;;14.43;4.15;;;9.00;99.90;;;;;;5041765;28;20029;-45
2022/09/25 05:10:20;;;;;;;15.77;3.72;;;8.90;99.90;;;;;;5053829;28;20029;-43
2022/09/25 05:12:47;;;;;;;9.07;3.60;;;9.00;99.90;;;;;;5053728;28;20051;-44
2022/09/25 05:15:13;;;;;;;9.55;3.28;;;9.10;99.90;;;;;;5053513;28;20131;-45
2022/09/25 05:17:39;;;;;;;10.25;2.92;;;9.20;99.90;;;;;;5053346;28;20407;-45
2022/09/25 05:20:05;;;;;;;9.90;2.78;;;9.10;99.90;;;;;;5050912;28;20041;-46
2022/09/25 05:22:30;;;;;;;6.20;2.22;;;9.00;99.90;;;;;;5052118;28;20084;-43
2022/09/25 05:24:56;;;;;;;9.27;2.40;;;9.10;99.90;;;;;;5053467;28;20244;-43
2022/09/25 05:27:22;;;;;;;9.38;2.50;;;9.00;99.90;;;;;;5046123;28;20051;-43
2022/09/25 05:29:48;;;;;;;8.73;2.33;;;9.20;99.90;;;;;;5047511;28;20837;-45
2022/09/25 05:32:14;;;;;;;6.35;2.42;;;9.10;99.90;;;;;;5047576;28;20441;-45
2022/09/25 05:34:40;;;;;;;8.82;2.38;;;9.20;99.90;;;;;;5046566;28;20182;-45
2022/09/25 05:37:06;;;;;;;5.97;2.80;;;9.40;99.90;;;;;;5050169;28;20127;-46
2022/09/25 05:39:31;;;;;;;8.13;2.92;;;9.40;99.90;;;;;;5048290;28;21493;-43
2022/09/25 05:41:57;;;;;;;8.82;3.33;;;9.20;99.90;;;;;;5047750;28;20033;-44
2022/09/25 05:44:23;;;;;;;11.82;3.47;;;9.10;99.90;;;;;;5050863;28;20037;-46
2022/09/25 05:46:49;;;;;;;7.10;3.53;;;9.30;99.90;;;;;;5048488;28;20115;-43
2022/09/25 05:49:15;;;;;;;9.73;3.50;;;9.10;99.90;;;;;;5040039;28;20494;-44
2022/09/25 05:51:41;;;;;;;10.00;3.40;;;9.10;99.90;;;;;;5051354;28;20045;-45
2022/09/25 05:54:06;;;;;;;8.82;3.08;;;9.10;99.90;;;;;;5050075;28;20138;-44
2022/09/25 05:56:32;;;;;;;10.75;2.90;;;9.10;99.90;;;;;;5050642;28;20037;-45
2022/09/25 05:58:58;;;;;;;6.00;2.67;;;9.10;99.90;;;;;;5050768;28;20040;-43
2022/09/25 06:01:24;;;;;;;7.03;2.30;;;9.40;99.90;;;;;;5052804;28;20037;-44
2022/09/25 06:03:50;;;;;;;10.40;3.10;;;9.10;99.90;;;;;;5050005;28;20069;-45
2022/09/25 06:06:16;;;;;;;9.73;3.38;;;9.20;99.90;;;;;;5052827;28;20126;-45
2022/09/25 06:08:41;;;;;;;10.13;3.47;;;9.20;99.90;;;;;;5052411;28;20499;-45
2022/09/25 06:11:07;;;;;;;12.07;4.00;;;9.20;99.90;;;;;;5052801;28;20116;-44
2022/09/25 06:13:35;;;;;;;11.85;3.97;;;9.40;99.90;;;;;;5052585;28;20041;-44
2022/09/25 06:16:01;;;;;;;12.05;3.35;;;9.30;99.90;;;;;;5052581;28;20059;-45
2022/09/25 06:18:27;;;;;;;9.57;3.20;;;9.50;99.90;;;;;;5052806;28;20045;-44
2022/09/25 06:21:02;;;;;;;8.35;2.83;;;9.60;99.90;;;;;;5050903;28;20067;-46
2022/09/25 06:23:29;;;;;;;11.82;2.63;;;9.70;99.90;;;;;;5052430;28;20040;-44
2022/09/25 06:26:00;;;;;;;12.10;3.15;;;9.90;99.90;;;;;;5052164;28;20455;-44
2022/09/25 06:28:26;;;;;;;10.75;3.50;;;9.80;99.90;;;;;;5052332;28;20611;-45
2022/09/25 06:30:51;;;;;;;11.63;3.15;;;9.90;99.90;;;;;;5052539;28;20029;-45
2022/09/25 06:33:17;;;;;;;16.30;4.07;;;10.10;99.90;;;;;;5052437;28;20033;-44
2022/09/25 06:35:47;;;;;;;13.82;4.20;;;10.40;99.90;;;;;;5052012;28;20072;-48
2022/09/25 06:38:14;;;;;;;9.82;3.15;;;10.60;99.90;;;;;;5049205;28;20103;-43
2022/09/25 06:40:40;;;;;;;9.70;3.08;;;10.60;99.90;;;;;;5052127;28;20388;-42
2022/09/25 06:43:09;;;;;;;10.30;3.13;;;10.60;99.90;;;;;;5050865;28;20037;-46
2022/09/25 06:45:38;;;;;;;11.18;2.97;;;10.80;99.90;;;;;;5051872;28;20045;-44
2022/09/25 06:48:12;;;;;;;9.43;3.20;;;10.70;99.90;;;;;;5052159;28;20075;-45
2022/09/25 06:50:45;;;;;;;9.25;3.05;;;11.10;99.90;;;;;;5051963;28;20039;-44
2022/09/25 06:53:11;;;;;;;15.35;3.50;;;11.00;99.90;;;;;;5051306;28;20072;-43
2022/09/25 06:55:37;;;;;;;9.95;2.92;;;11.00;99.90;;;;;;5051526;28;20041;-45
2022/09/25 06:58:05;;;;;;;10.95;2.33;;;11.10;99.90;;;;;;5051725;28;20033;-43
2022/09/25 07:00:32;;;;;;;8.23;2.22;;;11.50;99.90;;;;;;5051488;28;20048;-47
2022/09/25 07:05:43;;;;;;;7.15;1.55;;;11.60;99.90;;;;;;5051583;28;20041;-48
2022/09/25 07:08:14;;;;;;;6.70;1.80;;;11.60;99.90;;;;;;5051272;28;20037;-44
2022/09/25 07:10:47;;;;;;;5.03;1.50;;;11.80;99.90;;;;;;5051466;28;20531;-45
2022/09/25 07:13:12;;;;;;;6.40;1.40;;;11.90;99.90;;;;;;5048556;28;20044;-44
2022/09/25 07:15:38;;;;;;;4.65;1.50;;;12.10;99.90;;;;;;5037111;28;20049;-44
2022/09/25 07:18:04;;;;;;;6.88;1.20;;;12.30;99.90;;;;;;5051266;28;20094;-44
2022/09/25 07:20:31;;;;;;;5.80;1.17;;;12.30;99.90;;;;;;5032066;28;20136;-44
2022/09/25 07:23:03;;;;;;;7.20;1.15;;;12.20;99.90;;;;;;5048311;28;20057;-45
2022/09/25 07:25:30;;;;;;;4.18;1.00;;;12.30;99.90;;;;;;5051144;28;20761;-46
2022/09/25 07:27:57;;;;;;;5.70;1.33;;;12.30;99.90;;;;;;5051463;28;20476;-45
2022/09/25 07:30:27;;;;;;;3.42;1.00;;;12.30;99.90;;;;;;5050984;28;20086;-48
2022/09/25 07:32:52;;;;;;;6.15;1.35;;;12.50;99.90;;;;;;5050868;28;20045;-46
2022/09/25 07:35:19;;;;;;;7.47;1.40;;;12.40;99.90;;;;;;5051059;28;20373;-47
2022/09/25 07:37:44;;;;;;;5.68;1.10;;;12.30;99.90;;;;;;5050918;28;20049;-46
2022/09/25 07:40:13;;;;;;;4.88;1.33;;;12.40;99.90;;;;;;5051320;28;20064;-43
2022/09/25 07:42:40;;;;;;;5.22;1.90;;;12.30;99.90;;;;;;5051070;28;20052;-45
2022/09/25 07:45:06;;;;;;;5.95;1.40;;;12.20;99.90;;;;;;5032964;28;20400;-46
2022/09/25 07:47:32;;;;;;;4.82;1.05;;;12.20;99.90;;;;;;5050679;28;20444;-44
2022/09/25 07:49:58;;;;;;;5.45;1.42;;;12.20;99.90;;;;;;5050846;28;20114;-43
2022/09/25 07:52:23;;;;;;;4.47;1.25;;;12.20;99.90;;;;;;5051023;28;20060;-45
2022/09/25 07:54:49;;;;;;;8.48;2.10;;;12.30;99.90;;;;;;5039046;28;20064;-43
2022/09/25 07:57:19;;;;;;;6.03;1.77;;;12.10;99.90;;;;;;5050947;28;20479;-45
2022/09/25 07:59:45;;;;;;;8.48;2.00;;;12.20;99.90;;;;;;5050709;28;20047;-46
2022/09/25 08:02:11;;;;;;;7.28;1.65;;;12.20;99.90;;;;;;5050914;28;20040;-45
2022/09/25 08:04:37;;;;;;;6.28;1.30;;;12.40;99.90;;;;;;5050668;28;20047;-48
2022/09/25 08:07:03;;;;;;;6.78;1.30;;;12.40;99.90;;;;;;5050383;28;20032;-44
2022/09/25 08:09:29;;;;;;;9.30;1.30;;;12.30;99.90;;;;;;5050889;28;20127;-45
2022/09/25 08:11:55;;;;;;;6.38;1.08;;;12.30;99.90;;;;;;5050711;28;20111;-44
2022/09/25 08:14:21;;;;;;;4.18;0.80;;;12.40;99.90;;;;;;5050819;28;20484;-43
2022/09/25 08:16:53;;;;;;;6.10;0.90;;;12.50;99.90;;;;;;5050812;28;20041;-44
2022/09/25 08:19:21;;;;;;;5.45;1.02;;;12.50;99.90;;;;;;5050017;28;20048;-46
2022/09/25 08:21:47;;;;;;;4.82;0.93;;;12.60;99.90;;;;;;5050289;28;20060;-46
2022/09/25 08:24:13;;;;;;;6.10;1.00;;;12.60;99.90;;;;;;5050176;28;20037;-48
2022/09/25 08:26:38;;;;;;;3.42;0.95;;;12.60;99.90;;;;;;5050228;28;20072;-45
2022/09/25 08:29:04;;;;;;;3.65;0.88;;;12.80;99.90;;;;;;5050494;28;20094;-47
2022/09/25 08:31:30;;;;;;;4.25;0.90;;;12.70;99.90;;;;;;5050591;28;20041;-45
2022/09/25 08:33:55;;;;;;;3.97;0.80;;;12.80;99.90;;;;;;5050504;28;20040;-44
2022/09/25 08:36:22;;;;;;;3.00;0.82;;;12.90;99.90;;;;;;5050340;28;20539;-46
2022/09/25 08:38:48;;;;;;;2.78;0.70;;;13.00;99.90;;;;;;5049908;28;20045;-47
2022/09/25 08:41:26;;;;;;;4.28;0.75;;;13.10;99.90;;;;;;5050350;28;20051;-45
2022/09/25 08:44:10;;;;;;;4.20;0.80;;;13.20;99.90;;;;;;5050312;28;20053;-46
2022/09/25 08:49:28;;;;;;;6.63;0.90;;;13.40;99.90;;;;;;5049768;28;20045;-46
2022/09/25 08:52:00;;;;;;;5.45;0.88;;;13.50;99.90;;;;;;5050317;28;20056;-46
2022/09/25 08:54:28;;;;;;;6.03;1.20;;;13.60;99.90;;;;;;5047822;28;20029;-46
2022/09/25 08:57:00;;;;;;;4.80;1.02;;;13.70;99.90;;;;;;5050196;28;20502;-46
2022/09/25 08:59:39;;;;;;;4.82;0.70;;;13.80;99.90;;;;;;5050307;28;20029;-49
2022/09/25 09:02:19;;;;;;;5.22;1.00;;;14.00;99.90;;;;;;5049996;28;20045;-43
2022/09/25 09:04:58;;;;;;;3.65;0.80;;;14.00;99.90;;;;;;5050334;28;20175;-48
2022/09/25 09:07:33;;;;;;;5.95;1.02;;;14.20;99.90;;;;;;5049891;28;20040;-44
2022/09/25 09:10:25;;;;;;;4.70;0.80;;;14.30;99.90;;;;;;5050301;28;20049;-46
2022/09/25 09:12:57;;;;;;;4.18;0.90;;;14.40;99.90;;;;;;5048641;28;20087;-48
2022/09/25 09:15:47;;;;;;;6.32;0.90;;;14.50;99.90;;;;;;5051786;28;20041;-49
2022/09/25 09:18:22;;;;;;;6.35;1.00;;;14.60;99.90;;;;;;5053765;28;20491;-45
2022/09/25 09:20:52;;;;;;;4.28;0.90;;;14.70;99.90;;;;;;5053494;28;20068;-46
2022/09/25 09:23:21;;;;;;;4.18;0.75;;;14.90;99.90;;;;;;5052202;28;20040;-47
2022/09/25 09:25:56;;;;;;;4.53;0.90;;;14.90;99.90;;;;;;5053403;28;20543;-45
2022/09/25 09:28:47;;;;;;;4.45;1.08;;;15.00;99.90;;;;;;5053186;28;20128;-45
2022/09/25 09:31:25;;;;;;;4.13;0.90;;;15.10;99.90;;;;;;5053099;28;20045;-45
2022/09/25 09:33:59;;;;;;;4.45;0.85;;;15.00;99.90;;;;;;5053523;28;20029;-48
2022/09/25 09:36:51;;;;;;;4.70;1.00;;;15.00;99.90;;;;;;5053161;28;20045;-46
2022/09/25 09:39:39;;;;;;;5.88;0.90;;;14.70;99.90;;;;;;5049047;28;20194;-43
2022/09/25 09:42:34;;;;;;;5.57;1.17;;;15.20;99.90;;;;;;5053143;28;20037;-43
2022/09/25 09:45:22;;;;;;;6.85;1.08;;;14.90;99.90;;;;;;5052565;28;20124;-43
2022/09/25 09:48:28;;;;;;;3.42;0.80;;;14.80;99.90;;;;;;5053054;28;20033;-45
2022/09/25 09:51:04;;;;;;;4.70;0.73;;;14.80;99.90;;;;;;5052760;28;20032;-46
2022/09/25 09:53:38;;;;;;;5.50;0.82;;;14.90;99.90;;;;;;5053123;28;20116;-46
2022/09/25 09:56:09;;;;;;;;;;;15.00;99.90;;;;;;5053442;28;20415;-44
2022/09/25 09:58:54;;;;;;;4.50;0.70;;;14.80;99.90;;;;;;5053179;28;19916;-45
2022/09/25 10:01:22;;;;;;;3.10;0.70;;;14.60;99.90;;;;;;5052591;28;20041;-45
2022/09/25 10:04:00;;;;;;;6.47;1.00;;;14.90;99.90;;;;;;5052899;28;20574;-44
2022/09/25 10:06:29;;;;;;;4.70;0.70;;;15.20;99.90;;;;;;5051472;28;20045;-44
2022/09/25 10:08:55;;;;;;;2.70;0.60;;;15.50;99.90;;;;;;5052449;28;20361;-45
2022/09/25 10:11:21;;;;;;;4.10;0.82;;;15.60;99.90;;;;;;5052877;28;20091;-46
2022/09/25 10:13:47;;;;;;;5.07;1.05;;;15.70;99.90;;;;;;5052306;28;20044;-44
2022/09/25 10:16:17;;;;;;;3.60;0.65;;;16.00;99.90;;;;;;5052692;28;20042;-48
2022/09/25 10:18:46;;;;;;;5.10;0.63;;;16.30;99.90;;;;;;5052567;28;20068;-44
2022/09/25 10:21:15;;;;;;;4.35;0.70;;;16.40;99.90;;;;;;5052059;28;20053;-47
2022/09/25 10:23:49;;;;;;;6.55;0.95;;;16.40;99.90;;;;;;5052256;28;20074;-45
2022/09/25 10:26:29;;;;;;;3.05;0.80;;;16.30;99.90;;;;;;5049653;28;20099;-44
2022/09/25 10:28:57;;;;;;;4.30;0.70;;;16.20;99.90;;;;;;5052485;28;20041;-43
2022/09/25 10:31:26;;;;;;;4.95;0.65;;;16.20;99.90;;;;;;5052248;28;20411;-47
2022/09/25 10:34:16;;;;;;;5.70;0.80;;;16.40;99.90;;;;;;5052433;28;20029;-44
2022/09/25 10:36:50;;;;;;;2.10;0.40;;;16.60;99.90;;;;;;5051134;28;20149;-46
2022/09/25 10:39:32;;;;;;;1.98;0.50;;;15.80;99.90;;;;;;5052024;28;20045;-42
2022/09/25 10:41:59;;;;;;;2.67;0.60;;;15.20;99.90;;;;;;5051030;28;20044;-46
2022/09/25 10:44:34;;;;;;;3.88;0.63;;;14.70;99.90;;;;;;5052175;28;20040;-44
2022/09/25 10:50:19;;;;;;;1.08;0.50;;;14.00;99.90;;;;;;5052046;28;20067;-46
2022/09/25 10:52:58;;;;;;;2.30;0.60;;;13.70;99.90;;;;;;5051625;28;20036;-44
2022/09/25 10:55:38;;;;;;;1.38;0.40;;;13.60;99.90;;;;;;5037005;28;20052;-43
2022/09/25 10:58:18;;;;;;;2.83;0.50;;;13.60;99.90;;;;;;5051862;28;20037;-43
2022/09/25 11:00:53;;;;;;;4.03;0.90;;;13.60;99.90;;;;;;5051949;28;20036;-43
2022/09/25 11:03:21;;;;;;;1.75;0.50;;;13.80;99.90;;;;;;5051626;28;20154;-42
2022/09/25 11:05:57;;;;;;;2.45;0.70;;;13.90;99.90;;;;;;5051735;28;20063;-49
2022/09/25 11:08:27;;;;;;;1.88;0.45;;;14.10;99.90;;;;;;5051040;28;20041;-44
2022/09/25 11:10:56;;;;;;;2.63;0.45;;;14.40;99.90;;;;;;5051795;28;20033;-47
2022/09/25 11:13:49;;;;;;;3.05;0.63;;;14.40;99.90;;;;;;5040046;28;20057;-45
2022/09/25 11:16:15;;;;;;;2.20;0.45;;;14.80;99.90;;;;;;5032552;28;20037;-44
2022/09/25 11:19:09;;;;;;;1.42;0.35;;;15.20;99.90;;;;;;5051349;28;20056;-45
2022/09/25 11:21:39;;;;;;;1.38;0.43;;;15.20;99.90;;;;;;5050815;28;20454;-47
2022/09/25 11:24:32;;;;;;;1.38;0.50;;;15.30;99.90;;;;;;5051376;28;20060;-46
2022/09/25 11:27:15;;;;;;;1.48;0.55;;;15.30;99.90;;;;;;5051122;28;20044;-45
2022/09/25 11:30:03;;;;;;;2.45;0.50;;;15.40;99.90;;;;;;5050955;28;20048;-43
2022/09/25 11:32:49;;;;;;;4.40;0.88;;;15.40;99.90;;;;;;5051138;28;20045;-45
2022/09/25 11:35:44;;;;;;;2.42;0.55;;;15.40;99.90;;;;;;5051304;28;20500;-47
2022/09/25 11:38:15;;;;;;;;;;;15.60;99.90;;;;;;5050873;28;20361;-43
2022/09/25 11:44:00;;;;;;;3.45;0.50;;;15.60;99.90;;;;;;5050426;28;20048;-43
2022/09/25 11:46:56;;;;;;;2.83;0.50;;;15.70;99.90;;;;;;5051026;28;20419;-45
2022/09/25 11:49:39;;;;;;;2.55;0.60;;;15.40;99.90;;;;;;5051049;28;20064;-43
2022/09/25 11:52:18;;;;;;;3.67;0.60;;;15.10;99.90;;;;;;5049876;28;20041;-47
2022/09/25 11:54:55;;;;;;;3.20;0.50;;;15.00;99.90;;;;;;5050844;28;20094;-44
2022/09/25 11:57:30;;;;;;;2.80;0.60;;;15.00;99.90;;;;;;5050981;28;20384;-46
2022/09/25 11:59:59;;;;;;;1.75;0.50;;;14.80;99.90;;;;;;5050783;28;20041;-44
2022/09/25 12:02:46;;;;;;;2.00;0.50;;;14.90;99.90;;;;;;5050872;28;20029;-42
2022/09/25 12:05:24;;;;;;;2.90;0.52;;;14.90;99.90;;;;;;5033464;28;20043;-46
2022/09/25 12:08:04;;;;;;;2.53;0.73;;;14.90;99.90;;;;;;5050482;28;20037;-46
2022/09/25 12:10:55;;;;;;;1.33;0.30;;;14.90;99.90;;;;;;5050468;28;20037;-48
2022/09/25 12:13:53;;;;;;;2.78;0.60;;;14.90;99.90;;;;;;5050851;28;20037;-44
2022/09/25 12:16:49;;;;;;;1.77;0.63;;;15.00;99.90;;;;;;5049402;28;20076;-43
2022/09/25 12:19:42;;;;;;;2.13;0.55;;;15.00;99.90;;;;;;5050468;28;20102;-44
2022/09/25 12:22:28;;;;;;;3.03;0.60;;;15.00;99.90;;;;;;5050326;28;20488;-45
2022/09/25 12:25:29;;;;;;;2.63;0.60;;;14.90;99.90;;;;;;5049265;28;20048;-45
2022/09/25 12:28:18;;;;;;;2.60;0.60;;;15.20;99.90;;;;;;5050991;28;20033;-47
2022/09/25 12:30:48;;;;;;;2.33;0.50;;;15.30;99.90;;;;;;5050341;28;20064;-43
2022/09/25 12:33:37;;;;;;;1.77;0.50;;;15.50;99.90;;;;;;5050256;28;20048;-43
2022/09/25 12:36:19;;;;;;;2.80;0.40;;;15.60;99.90;;;;;;5050427;28;20041;-45
2022/09/25 12:39:17;;;;;;;1.55;0.40;;;15.80;99.90;;;;;;5050317;28;20098;-45
2022/09/25 12:41:49;;;;;;;1.67;0.40;;;15.90;99.90;;;;;;5022730;28;20118;-47
2022/09/25 12:44:38;;;;;;;1.63;0.50;;;16.20;99.90;;;;;;5050598;28;20045;-43
2022/09/25 12:47:14;;;;;;;3.75;0.60;;;16.40;99.90;;;;;;5009199;28;20084;-44
2022/09/25 12:49:45;;;;;;;5.18;0.63;;;16.70;99.90;;;;;;5050767;28;20044;-43
2022/09/25 12:52:23;;;;;;;2.03;0.60;;;16.70;99.90;;;;;;5054333;28;20029;-45
2022/09/25 12:55:14;;;;;;;2.22;0.50;;;16.70;99.90;;;;;;5054262;28;20108;-44
2022/09/25 12:57:44;;;;;;;4.03;0.60;;;16.60;99.90;;;;;;5054041;28;20484;-45
2022/09/25 13:00:29;;;;;;;4.07;0.73;;;16.50;99.90;;;;;;5053990;28;20396;-43
2022/09/25 13:03:01;;;;;;;2.10;0.50;;;16.70;99.90;;;;;;5054075;28;20045;-45
2022/09/25 13:05:49;;;;;;;4.10;0.60;;;16.80;99.90;;;;;;5053869;28;20044;-45
2022/09/25 13:08:33;;;;;;;2.63;0.50;;;16.70;99.90;;;;;;5053613;28;20043;-47
2022/09/25 13:11:31;;;;;;;3.45;0.70;;;16.70;99.90;;;;;;5053595;28;20033;-46
2022/09/25 13:13:58;;;;;;;6.00;0.80;;;16.70;99.90;;;;;;5021878;28;20237;-44
2022/09/25 13:16:24;;;;;;;4.15;1.13;;;16.50;99.90;;;;;;5053464;28;20045;-45
2022/09/25 13:19:32;;;;;;;4.00;0.73;;;16.60;99.90;;;;;;5053695;28;20049;-43
2022/09/25 13:22:11;;;;;;;2.85;0.63;;;16.30;99.90;;;;;;5052459;28;20049;-44
2022/09/25 13:24:58;;;;;;;4.20;0.70;;;16.30;99.90;;;;;;5046464;28;20120;-44
2022/09/25 13:27:24;;;;;;;3.78;0.82;;;16.00;99.90;;;;;;5039106;28;20080;-46
2022/09/25 13:29:57;;;;;;;6.93;1.10;;;15.90;99.90;;;;;;5053252;28;20044;-48
2022/09/25 13:32:29;;;;;;;2.83;0.85;;;15.70;99.90;;;;;;5053418;28;20029;-45
2022/09/25 13:34:59;;;;;;;2.38;0.63;;;15.60;99.90;;;;;;5053162;28;20076;-44
2022/09/25 13:37:30;;;;;;;3.17;0.70;;;15.50;99.90;;;;;;5053067;28;20072;-43
2022/09/25 13:42:44;;;;;;;1.60;0.50;;;15.60;99.90;;;;;;5053340;28;20057;-47
2022/09/25 13:45:31;;;;;;;2.63;0.50;;;15.50;99.90;;;;;;5052810;28;20045;-46